Time;durP1;ratioP1;P1;durP2;ratioP2;P2;SDS_P1;SDS_P2;PMS_P1;PMS_P2;Temp;Humidity;BMP_temperature;BMP_pressure;BME280_temperature;BME280_humidity;BME280_pressure;Samples;Min_cycle;Max_cycle;Signal;HPM_P1;HPM_P2
2021/10/31 00:02:02;;;;;;;;;10.00;10.00;;;;;14.97;69.64;100287.03;5061417;28;45852;-69
2021/10/31 00:04:28;;;;;;;;;9.00;9.00;;;;;14.99;69.73;100291.34;5062692;28;45378;-69
2021/10/31 00:06:54;;;;;;;;;10.00;10.00;;;;;15.00;70.12;100295.78;5062634;28;46234;-69
2021/10/31 00:09:19;;;;;;;;;14.25;12.00;;;;;15.01;69.50;100291.25;5062638;28;45372;-69
2021/10/31 00:11:45;;;;;;;;;11.50;10.50;;;;;14.99;69.56;100285.97;5049416;28;45411;-69
2021/10/31 00:14:11;;;;;;;;;9.75;9.75;;;;;14.99;69.90;100280.59;5041301;28;45486;-69
2021/10/31 00:16:36;;;;;;;;;9.25;9.25;;;;;15.01;69.55;100283.19;5049137;28;45417;-69
2021/10/31 00:19:02;;;;;;;;;9.25;9.25;;;;;15.00;69.66;100285.03;5062451;28;45244;-69
2021/10/31 00:21:28;;;;;;;;;10.25;9.25;;;;;14.99;69.66;100282.41;5062793;28;45326;-69
2021/10/31 00:23:54;;;;;;;;;10.00;9.00;;;;;14.97;69.90;100287.03;5062520;28;45200;-69
2021/10/31 00:26:20;;;;;;;;;10.25;9.25;;;;;14.97;69.55;100293.25;5060700;28;48281;-69
2021/10/31 00:28:46;;;;;;;;;9.25;8.75;;;;;14.97;69.92;100295.09;5062595;28;45471;-69
2021/10/31 00:31:11;;;;;;;;;10.00;8.50;;;;;14.97;69.86;100287.88;5062427;28;45132;-69
2021/10/31 00:33:37;;;;;;;;;9.75;9.00;;;;;14.97;69.81;100289.72;5062179;28;45506;-69
2021/10/31 00:36:03;;;;;;;;;8.75;8.75;;;;;14.95;69.50;100278.16;5062454;28;45417;-69
2021/10/31 00:38:29;;;;;;;;;8.00;8.00;;;;;14.93;69.61;100288.13;5062223;28;45318;-69
2021/10/31 00:40:54;;;;;;;;;9.50;9.50;;;;;14.93;69.68;100288.13;5054806;28;45508;-69
2021/10/31 00:43:19;;;;;;;;;10.50;10.50;;;;;14.94;69.82;100293.44;5056235;28;45240;-69
2021/10/31 00:45:45;;;;;;;;;9.00;9.00;;;;;14.94;69.88;100292.56;5062184;28;45329;-69
2021/10/31 00:48:10;;;;;;;;;13.00;10.75;;;;;14.95;69.82;100294.28;5047136;28;45806;-69
2021/10/31 00:50:36;;;;;;;;;12.00;10.00;;;;;14.92;69.65;100284.59;5062424;28;45321;-69
2021/10/31 00:53:03;;;;;;;;;8.25;8.25;;;;;14.94;69.80;100295.25;5062223;28;45438;-69
2021/10/31 00:55:29;;;;;;;;;8.25;7.75;;;;;14.94;69.64;100296.13;5060558;28;48103;-69
2021/10/31 00:57:54;;;;;;;;;10.00;9.25;;;;;14.90;69.47;100289.19;5061918;28;46086;-69
2021/10/31 01:00:20;;;;;;;;;10.00;9.00;;;;;14.93;69.46;100296.19;5062012;28;45250;-69
2021/10/31 01:02:45;;;;;;;;;13.25;11.00;;;;;14.86;69.56;100273.34;5077411;28;45610;-69
2021/10/31 01:05:15;;;;;;;;;9.00;8.75;;;;;14.91;69.46;100288.22;5048137;28;46117;-69
2021/10/31 01:07:59;;;;;;;;;9.75;9.25;;;;;14.87;69.39;100281.31;5061842;28;45536;-69
2021/10/31 01:10:30;;;;;;;;;7.50;7.25;;;;;14.90;69.38;100280.25;5050611;28;45366;-69
2021/10/31 01:13:15;;;;;;;;;11.00;11.00;;;;;14.86;69.68;100273.34;5061787;28;45323;-69
2021/10/31 01:15:53;;;;;;;;;11.25;11.00;;;;;14.88;69.61;100274.09;5061255;28;46445;-69
2021/10/31 01:18:57;;;;;;;;;11.25;9.50;;;;;14.86;69.58;100273.34;5048640;28;45306;-69
2021/10/31 01:21:50;;;;;;;;;10.00;9.00;;;;;14.87;69.49;100273.25;5061615;28;45383;-69
2021/10/31 01:24:43;;;;;;;;;9.25;8.00;;;;;14.85;69.59;100272.47;5060297;28;45436;-69
2021/10/31 01:27:28;;;;;;;;;9.25;8.25;;;;;14.86;69.56;100276.03;5061065;28;45267;-69
2021/10/31 01:30:14;;;;;;;;;11.00;11.00;;;;;14.85;69.59;100269.78;5061613;28;45666;-69
2021/10/31 01:32:59;;;;;;;;;11.25;11.00;;;;;14.85;69.23;100276.97;5061321;28;45309;-69
2021/10/31 01:35:50;;;;;;;;;9.25;9.25;;;;;14.85;69.38;100271.59;5061340;28;45539;-69
2021/10/31 01:38:16;;;;;;;;;9.00;8.00;;;;;14.84;69.12;100267.19;5061263;28;45462;-69
2021/10/31 01:40:47;;;;;;;;;9.50;9.00;;;;;14.82;69.36;100265.44;5060903;28;45314;-69
2021/10/31 01:43:29;;;;;;;;;9.50;9.00;;;;;14.79;69.05;100264.75;5061535;28;45426;-69
2021/10/31 01:45:57;;;;;;;;;9.00;9.00;;;;;14.75;69.13;100247.97;5049900;28;45435;-69
2021/10/31 01:49:02;;;;;;;;;9.50;7.75;;;;;14.73;69.39;100247.16;5060827;28;46545;-69
2021/10/31 01:51:38;;;;;;;;;9.00;9.00;;;;;14.67;69.06;100231.41;5060661;28;45799;-69
2021/10/31 01:54:09;;;;;;;;;9.00;7.25;;;;;14.67;69.18;100233.22;5061404;28;45322;-69
2021/10/31 01:56:36;;;;;;;;;8.75;8.75;;;;;14.66;69.29;100234.19;5060625;28;45606;-69
2021/10/31 01:59:05;;;;;;;;;9.00;8.00;;;;;14.67;69.22;100236.78;5061086;28;45283;-69
2021/10/31 02:01:34;;;;;;;;;7.25;7.00;;;;;14.64;69.01;100235.13;5060546;28;45288;-69
2021/10/31 02:04:04;;;;;;;;;3.00;3.00;;;;;14.61;68.93;100231.75;5061109;28;45307;-69
2021/10/31 02:06:34;;;;;;;;;7.00;7.00;;;;;14.59;68.91;100226.47;5060796;28;45406;-69
2021/10/31 02:09:00;;;;;;;;;8.00;7.00;;;;;14.59;69.08;100221.09;5060401;28;46117;-69
2021/10/31 02:11:26;;;;;;;;;7.75;7.50;;;;;14.56;69.18;100223.06;5060407;28;45337;-69
2021/10/31 02:13:53;;;;;;;;;10.75;8.75;;;;;14.56;69.18;100223.91;5061044;28;45336;-69
2021/10/31 02:16:19;;;;;;;;;9.00;8.00;;;;;14.53;69.02;100221.41;5060286;28;45558;-69
2021/10/31 02:18:46;;;;;;;;;7.25;7.25;;;;;14.52;69.20;100222.38;5060817;28;46171;-69
2021/10/31 02:21:19;;;;;;;;;9.25;8.00;;;;;14.56;69.19;100231.13;5060410;28;45495;-69
2021/10/31 02:23:45;;;;;;;;;9.00;7.50;;;;;14.51;68.92;100219.78;5060967;28;45347;-69
2021/10/31 02:26:13;;;;;;;;;9.50;8.75;;;;;14.55;69.06;100232.06;5060087;28;45502;-69
2021/10/31 02:28:39;;;;;;;;;8.25;8.25;;;;;14.55;69.45;100234.75;5060675;28;45277;-69
2021/10/31 02:31:04;;;;;;;;;11.00;7.50;;;;;14.53;69.32;100228.59;5060067;28;45257;-69
2021/10/31 02:33:29;;;;;;;;;10.50;7.50;;;;;14.52;69.23;100221.53;5060657;28;45223;-69
2021/10/31 02:35:55;;;;;;;;;10.00;8.50;;;;;14.54;69.07;100224.97;5060232;28;45730;-69
2021/10/31 02:38:21;;;;;;;;;11.00;10.00;;;;;14.50;69.05;100218.91;5060501;28;46375;-69
2021/10/31 02:40:46;;;;;;;;;7.00;7.00;;;;;14.51;69.13;100217.09;5060131;28;45352;-69
2021/10/31 02:43:12;;;;;;;;;8.25;7.00;;;;;14.48;69.15;100219.94;5060583;28;45363;-69
2021/10/31 02:45:37;;;;;;;;;9.00;8.25;;;;;14.44;69.07;100206.69;5059898;28;45489;-69
2021/10/31 02:48:09;;;;;;;;;10.25;10.25;;;;;14.41;69.05;100196.13;5059814;28;46286;-69
2021/10/31 02:50:41;;;;;;;;;8.50;8.50;;;;;14.32;69.00;100183.22;5072187;28;45530;-69
2021/10/31 02:53:11;;;;;;;;;8.25;8.00;;;;;14.36;69.35;100191.97;5060312;28;45357;-69
2021/10/31 02:55:45;;;;;;;;;9.00;8.75;;;;;14.39;69.07;100189.97;5060172;28;45467;-69
2021/10/31 02:58:23;;;;;;;;;8.00;8.00;;;;;14.39;69.13;100187.28;5058506;28;47342;-69
2021/10/31 03:00:55;;;;;;;;;7.75;7.75;;;;;14.36;69.32;100189.28;5060099;28;45523;-69
2021/10/31 03:03:21;;;;;;;;;8.50;8.50;;;;;14.36;69.15;100184.78;5059909;28;45231;-69
2021/10/31 03:05:52;;;;;;;;;8.25;8.25;;;;;14.36;69.14;100183.91;5058851;28;45421;-69
2021/10/31 03:08:19;;;;;;;;;9.25;8.75;;;;;14.32;69.05;100177.88;5059712;28;45714;-68
2021/10/31 03:10:53;;;;;;;;;6.75;6.75;;;;;14.32;69.00;100177.88;5059825;28;45409;-69
2021/10/31 03:13:19;;;;;;;;;8.00;8.00;;;;;14.29;68.99;100178.03;5059942;28;45290;-69
2021/10/31 03:15:44;;;;;;;;;9.00;9.00;;;;;14.30;68.98;100170.84;5059824;28;45233;-69
2021/10/31 03:18:10;;;;;;;;;10.00;8.50;;;;;14.28;69.09;100168.22;5059697;28;45324;-69
2021/10/31 03:20:35;;;;;;;;;8.50;8.50;;;;;14.23;69.13;100156.91;5061699;28;45288;-68
2021/10/31 03:23:01;;;;;;;;;6.50;6.50;;;;;14.24;68.86;100145.22;5063535;28;45180;-69
2021/10/31 03:25:26;;;;;;;;;7.75;7.75;;;;;14.23;69.21;100155.09;5063280;28;45160;-69
2021/10/31 03:27:52;;;;;;;;;8.00;8.00;;;;;14.21;68.88;100159.66;5063320;28;46352;-69
2021/10/31 03:30:18;;;;;;;;;7.00;7.00;;;;;14.20;69.18;100154.38;5063340;28;45372;-69
2021/10/31 03:32:44;;;;;;;;;11.50;9.75;;;;;14.21;69.35;100153.44;5063162;28;45529;-68
2021/10/31 03:35:10;;;;;;;;;9.25;9.25;;;;;14.21;69.33;100145.38;5062079;28;45652;-68
2021/10/31 03:37:36;;;;;;;;;9.25;9.25;;;;;14.19;68.81;100141.94;5063059;28;45331;-69
2021/10/31 03:40:01;;;;;;;;;7.25;7.25;;;;;14.17;69.14;100150.06;5063122;28;45414;-69
2021/10/31 03:42:27;;;;;;;;;8.00;8.00;;;;;14.14;69.06;100149.38;5056757;28;45322;-69
2021/10/31 03:44:52;;;;;;;;;8.50;7.00;;;;;14.13;68.95;100140.44;5056017;28;45538;-69
2021/10/31 03:47:19;;;;;;;;;8.25;8.25;;;;;14.11;68.96;100139.69;5058063;28;45573;-69
2021/10/31 03:49:45;;;;;;;;;7.75;7.75;;;;;14.09;69.00;100134.38;5063178;28;45453;-68
2021/10/31 03:52:12;;;;;;;;;9.50;8.25;;;;;14.07;69.15;100135.44;5063169;28;45477;-69
2021/10/31 03:54:37;;;;;;;;;8.00;8.00;;;;;14.10;69.31;100143.34;5063035;28;45338;-69
2021/10/31 03:57:03;;;;;;;;;8.25;8.25;;;;;14.07;69.20;100140.81;5062581;28;46644;-68
2021/10/31 03:59:29;;;;;;;;;13.75;12.25;;;;;14.05;69.33;100134.69;5061725;28;45413;-68
2021/10/31 04:01:54;;;;;;;;;14.50;9.75;;;;;14.00;69.49;100129.56;5058611;28;45395;-69
2021/10/31 04:04:19;;;;;;;;;10.75;10.75;;;;;13.99;69.63;100118.91;5062747;28;45331;-69
2021/10/31 04:06:45;;;;;;;;;11.25;11.00;;;;;14.02;69.66;100121.44;5062504;28;45952;-68
2021/10/31 04:09:10;;;;;;;;;10.00;9.75;;;;;14.04;69.76;100120.38;5062741;28;45314;-69
2021/10/31 04:11:35;;;;;;;;;10.50;9.00;;;;;14.05;69.81;100113.22;5062629;28;45520;-68
2021/10/31 04:14:00;;;;;;;;;13.75;10.50;;;;;14.01;69.97;100108.94;5061266;28;45598;-69
2021/10/31 04:16:26;;;;;;;;;10.75;9.25;;;;;14.03;70.03;100107.94;5062122;28;46281;-69
2021/10/31 04:18:51;;;;;;;;;12.25;11.50;;;;;14.04;70.05;100108.78;5062640;28;45280;-69
2021/10/31 04:21:17;;;;;;;;;9.50;9.50;;;;;14.03;69.89;100109.72;5062630;28;45444;-68
2021/10/31 04:23:42;;;;;;;;;13.75;12.75;;;;;14.00;69.88;100094.69;5062638;28;45516;-69
2021/10/31 04:26:08;;;;;;;;;13.25;11.50;;;;;13.98;69.79;100093.03;5061872;28;46295;-69
2021/10/31 04:28:33;;;;;;;;;11.00;9.75;;;;;13.97;70.21;100092.16;5062402;28;45243;-69
2021/10/31 04:30:58;;;;;;;;;11.00;10.00;;;;;13.98;70.05;100093.91;5061853;28;45302;-69
2021/10/31 04:33:24;;;;;;;;;10.25;8.25;;;;;13.94;70.34;100089.66;5057748;28;45563;-68
2021/10/31 04:35:49;;;;;;;;;9.00;9.00;;;;;13.95;70.42;100080.66;5060526;28;45435;-69
2021/10/31 04:38:19;;;;;;;;;11.25;10.00;;;;;13.99;70.46;100094.75;5062218;28;45331;-69
2021/10/31 04:40:45;;;;;;;;;8.25;7.50;;;;;13.96;70.42;100085.06;5062025;28;45309;-69
2021/10/31 04:43:11;;;;;;;;;7.00;7.00;;;;;13.96;70.39;100085.06;5062568;28;45365;-68
2021/10/31 04:45:43;;;;;;;;;8.00;7.50;;;;;13.99;70.49;100098.31;5061980;28;46278;-69
2021/10/31 04:48:09;;;;;;;;;8.50;8.50;;;;;14.00;70.70;100091.09;5047264;28;45268;-69
2021/10/31 04:50:35;;;;;;;;;7.75;6.75;;;;;13.99;70.77;100084.03;5049091;28;45256;-69
2021/10/31 04:53:01;;;;;;;;;8.00;8.00;;;;;14.00;70.85;100078.56;5062158;28;45436;-69
2021/10/31 04:55:27;;;;;;;;;9.50;8.25;;;;;13.99;70.80;100074.16;5061885;28;45357;-69
2021/10/31 04:57:52;;;;;;;;;7.25;7.25;;;;;14.03;70.69;100064.09;5061917;28;45175;-69
2021/10/31 05:00:18;;;;;;;;;7.00;7.00;;;;;14.03;70.85;100059.63;5060792;28;45231;-69
2021/10/31 05:02:43;;;;;;;;;9.75;9.75;;;;;14.01;71.02;100050.78;5060436;28;45430;-69
2021/10/31 05:05:08;;;;;;;;;9.50;9.50;;;;;14.00;70.87;100032.97;5061596;28;45216;-69
2021/10/31 05:07:34;;;;;;;;;7.25;6.25;;;;;14.02;70.82;100039.09;5061915;28;45214;-69
2021/10/31 05:09:59;;;;;;;;;8.50;8.00;;;;;14.06;70.90;100037.94;5061467;28;45161;-69
2021/10/31 05:12:27;;;;;;;;;9.75;8.00;;;;;14.08;71.04;100028.03;5061820;28;45161;-69
2021/10/31 05:14:53;;;;;;;;;10.00;10.00;;;;;14.05;70.94;100006.72;5061394;28;45512;-69
2021/10/31 05:17:19;;;;;;;;;8.50;8.50;;;;;14.09;70.70;100015.44;5068461;28;45964;-69
2021/10/31 05:19:44;;;;;;;;;8.50;8.50;;;;;14.08;70.67;100014.59;5061728;28;45383;-69
2021/10/31 05:22:09;;;;;;;;;9.50;8.25;;;;;14.03;71.02;100007.75;5061593;28;45386;-69
2021/10/31 05:24:35;;;;;;;;;8.50;7.00;;;;;14.08;70.95;100005.66;5061490;28;45334;-68
2021/10/31 05:27:00;;;;;;;;;8.50;7.50;;;;;14.09;71.02;99999.34;5061207;28;45283;-69
2021/10/31 05:29:25;;;;;;;;;7.00;7.00;;;;;14.07;71.13;99988.69;5061634;28;45420;-69
2021/10/31 05:31:51;;;;;;;;;9.00;8.00;;;;;14.04;71.59;99986.19;5061115;28;45499;-68
2021/10/31 05:34:16;;;;;;;;;6.50;6.50;;;;;14.00;71.12;99979.28;5061253;28;45300;-68
2021/10/31 05:36:41;;;;;;;;;8.25;7.50;;;;;14.03;71.33;99981.81;5061526;28;45400;-69
2021/10/31 05:39:07;;;;;;;;;7.00;7.00;;;;;14.01;71.14;99970.28;5061458;28;45390;-69
2021/10/31 05:41:32;;;;;;;;;6.75;6.25;;;;;14.03;71.44;99979.13;5061245;28;45203;-69
2021/10/31 05:43:58;;;;;;;;;6.50;6.25;;;;;14.06;71.57;99978.91;5060121;28;45330;-69
2021/10/31 05:46:23;;;;;;;;;7.75;7.00;;;;;14.04;71.51;99967.41;5061052;28;45215;-69
2021/10/31 05:48:49;;;;;;;;;7.25;5.00;;;;;14.02;71.42;99969.34;5061194;28;45391;-68
2021/10/31 05:51:14;;;;;;;;;5.00;5.00;;;;;14.04;71.59;99964.72;5061155;28;45410;-69
2021/10/31 05:53:40;;;;;;;;;5.75;5.75;;;;;14.00;71.58;99949.78;5060859;28;46490;-69
2021/10/31 05:56:07;;;;;;;;;6.50;5.00;;;;;14.02;71.62;99963.09;5060863;28;45252;-69
2021/10/31 05:58:32;;;;;;;;;6.50;5.00;;;;;14.02;71.67;99963.09;5061042;28;45343;-69
2021/10/31 06:00:57;;;;;;;;;6.00;6.00;;;;;14.00;71.84;99956.94;5060873;28;45298;-69
2021/10/31 06:03:24;;;;;;;;;6.75;5.00;;;;;13.98;71.69;99951.69;5060565;28;46671;-69
2021/10/31 06:05:49;;;;;;;;;5.75;5.75;;;;;13.95;71.81;99937.56;5059780;28;45688;-69
2021/10/31 06:08:16;;;;;;;;;6.00;4.75;;;;;13.96;71.95;99944.69;5059507;28;45354;-69
2021/10/31 06:10:47;;;;;;;;;5.50;5.50;;;;;13.94;72.17;99936.72;5049160;28;45504;-69
2021/10/31 06:13:13;;;;;;;;;5.75;5.75;;;;;13.95;72.14;99930.41;5059289;28;46149;-69
2021/10/31 06:15:39;;;;;;;;;5.75;5.00;;;;;13.93;72.29;99929.63;5060663;28;45248;-69
2021/10/31 06:18:05;;;;;;;;;7.00;6.00;;;;;13.90;72.26;99924.47;5060685;28;45473;-69
2021/10/31 06:20:30;;;;;;;;;5.50;5.50;;;;;13.93;72.30;99923.38;5060771;28;45490;-69
2021/10/31 06:22:55;;;;;;;;;5.25;5.25;;;;;13.94;71.96;99925.13;5060490;28;45284;-69
2021/10/31 06:25:21;;;;;;;;;7.50;6.25;;;;;13.98;72.44;99934.72;5060409;28;46423;-68
2021/10/31 06:27:46;;;;;;;;;6.50;6.25;;;;;13.95;72.29;99929.53;5060577;28;45436;-69
2021/10/31 06:30:12;;;;;;;;;4.75;4.75;;;;;13.94;72.52;99925.13;5060619;28;45350;-69
2021/10/31 06:32:41;;;;;;;;;7.75;6.50;;;;;13.97;73.01;99928.50;5059173;28;46069;-69
2021/10/31 06:35:06;;;;;;;;;6.25;6.25;;;;;13.98;72.55;99923.97;5060531;28;45443;-69
2021/10/31 06:37:32;;;;;;;;;8.00;8.00;;;;;13.88;72.54;99896.84;5060288;28;45201;-69
2021/10/31 06:39:57;;;;;;;;;8.00;8.00;;;;;13.95;72.61;99910.75;5060254;28;45362;-69
2021/10/31 06:42:26;;;;;;;;;8.00;8.00;;;;;13.96;72.48;99905.28;5059563;28;45556;-69
2021/10/31 06:44:51;;;;;;;;;8.25;6.25;;;;;13.97;72.75;99900.81;5062963;28;46114;-68
2021/10/31 06:47:17;;;;;;;;;7.00;6.25;;;;;13.93;72.61;99896.56;5054120;28;45414;-69
2021/10/31 06:49:43;;;;;;;;;6.00;6.00;;;;;13.94;72.78;99898.31;5060014;28;45169;-69
2021/10/31 06:52:09;;;;;;;;;6.75;6.00;;;;;13.89;72.86;99886.00;5059807;28;45288;-69
2021/10/31 06:54:35;;;;;;;;;6.50;6.00;;;;;13.93;72.92;99889.38;5059608;28;45262;-69
2021/10/31 06:57:00;;;;;;;;;8.25;7.00;;;;;13.93;72.92;99896.56;5059703;28;45326;-69
2021/10/31 06:59:26;;;;;;;;;5.00;5.00;;;;;13.97;72.91;99893.63;5060132;28;45412;-69
2021/10/31 07:01:51;;;;;;;;;6.50;6.00;;;;;13.97;73.19;99896.28;5046224;28;46145;-69
2021/10/31 07:04:16;;;;;;;;;8.00;6.00;;;;;13.93;72.81;99886.69;5052276;28;45291;-69
2021/10/31 07:06:42;;;;;;;;;7.00;6.50;;;;;13.96;72.96;99880.28;5059556;28;45338;-69
2021/10/31 07:09:07;;;;;;;;;5.50;5.50;;;;;13.96;72.78;99869.56;5059838;28;45467;-69
2021/10/31 07:11:33;;;;;;;;;6.75;6.75;;;;;13.97;73.03;99866.78;5059321;28;45397;-68
2021/10/31 07:13:58;;;;;;;;;8.50;6.50;;;;;13.91;72.81;99853.72;5059885;28;45357;-69
2021/10/31 07:16:23;;;;;;;;;9.50;9.50;;;;;13.94;73.29;99858.91;5059583;28;45744;-68
2021/10/31 07:18:49;;;;;;;;;8.00;8.00;;;;;13.96;73.01;99869.56;5060033;28;45573;-72
2021/10/31 07:21:14;;;;;;;;;7.25;7.00;;;;;13.95;73.20;99863.34;5059568;28;46203;-70
2021/10/31 07:23:40;;;;;;;;;8.00;7.00;;;;;13.99;72.83;99870.22;5058618;28;45471;-73
2021/10/31 07:26:07;;;;;;;;;12.00;9.50;;;;;14.00;73.06;99863.91;5059349;28;45456;-73
2021/10/31 07:28:32;;;;;;;;;9.00;7.00;;;;;13.98;73.30;99855.09;5058444;28;45479;-74
2021/10/31 07:30:59;;;;;;;;;7.00;7.00;;;;;14.05;73.14;99860.97;5059434;28;45310;-73
2021/10/31 07:33:24;;;;;;;;;4.00;4.00;;;;;14.03;72.82;99839.59;5059445;28;45561;-73
2021/10/31 07:35:50;;;;;;;;;8.75;8.00;;;;;14.08;73.18;99858.06;5059715;28;45310;-73
2021/10/31 07:38:15;;;;;;;;;7.00;7.00;;;;;14.08;73.13;99841.97;5055053;28;45469;-73
2021/10/31 07:40:41;;;;;;;;;7.75;7.00;;;;;14.12;73.16;99840.84;5046120;28;46088;-73
2021/10/31 07:43:07;;;;;;;;;7.25;5.50;;;;;14.14;72.85;99846.97;5059535;28;45255;-73
2021/10/31 07:45:32;;;;;;;;;8.00;7.00;;;;;14.17;73.34;99841.41;5059716;28;45330;-73
2021/10/31 07:48:00;;;;;;;;;7.00;7.00;;;;;14.15;73.23;99850.50;5058999;28;45279;-73
2021/10/31 07:50:25;;;;;;;;;5.75;5.75;;;;;14.20;72.78;99854.66;5059475;28;47124;-73
2021/10/31 07:52:51;;;;;;;;;7.50;6.00;;;;;14.12;72.98;99837.28;5057890;28;45488;-73
2021/10/31 07:55:19;;;;;;;;;4.50;4.50;;;;;14.19;73.00;99839.50;5059509;28;45385;-73
2021/10/31 07:57:46;;;;;;;;;5.75;4.25;;;;;14.21;72.87;99832.19;5059490;28;46304;-72
2021/10/31 08:00:12;;;;;;;;;6.00;6.00;;;;;14.24;73.24;99832.00;5059352;28;45326;-73
2021/10/31 08:02:38;;;;;;;;;6.50;6.50;;;;;14.21;72.88;99812.56;5047363;28;45473;-72
2021/10/31 08:05:04;;;;;;;;;7.75;5.00;;;;;14.27;73.17;99822.91;5057571;28;45303;-72
2021/10/31 08:07:30;;;;;;;;;7.00;6.00;;;;;14.24;72.85;99809.69;5062464;28;45306;-73
2021/10/31 08:09:58;;;;;;;;;6.50;6.50;;;;;14.28;72.82;99808.53;5055836;28;47150;-73
2021/10/31 08:12:28;;;;;;;;;6.75;6.00;;;;;14.29;72.78;99809.41;5055166;28;45437;-73
2021/10/31 08:14:54;;;;;;;;;5.00;5.00;;;;;14.31;72.92;99810.16;5062607;28;45430;-72
2021/10/31 08:17:19;;;;;;;;;6.75;6.25;;;;;14.30;72.94;99803.94;5062524;28;45549;-72
2021/10/31 08:19:45;;;;;;;;;7.50;6.50;;;;;14.32;73.18;99814.59;5062477;28;45421;-72
2021/10/31 08:22:11;;;;;;;;;8.25;6.75;;;;;14.36;73.05;99803.53;5062544;28;45380;-73
2021/10/31 08:24:36;;;;;;;;;8.25;5.00;;;;;14.37;72.96;99801.72;5062614;28;45371;-73
2021/10/31 08:27:01;;;;;;;;;6.50;6.50;;;;;14.34;73.23;99780.44;5060911;28;45453;-73
2021/10/31 08:29:27;;;;;;;;;8.00;5.00;;;;;14.38;73.00;99782.84;5062259;28;46186;-72
2021/10/31 08:31:55;;;;;;;;;10.00;10.00;;;;;14.40;72.89;99771.97;5062164;28;45411;-72
2021/10/31 08:34:21;;;;;;;;;8.25;8.25;;;;;14.41;72.75;99777.25;5062365;28;45290;-72
2021/10/31 08:36:46;;;;;;;;;8.00;8.00;;;;;14.44;72.69;99774.38;5061026;28;45453;-72
2021/10/31 08:39:11;;;;;;;;;6.25;6.00;;;;;14.49;72.88;99774.09;5062174;28;45324;-72
2021/10/31 08:41:37;;;;;;;;;6.00;5.00;;;;;14.46;72.87;99764.41;5062161;28;45330;-73
2021/10/31 08:44:03;;;;;;;;;6.50;6.50;;;;;14.50;72.61;99756.16;5062396;28;45489;-72
2021/10/31 08:46:30;;;;;;;;;7.00;6.00;;;;;14.51;72.77;99750.69;5061751;28;45455;-72
2021/10/31 08:48:56;;;;;;;;;6.75;6.25;;;;;14.51;72.87;99748.00;5077553;28;47076;-69
2021/10/31 08:51:24;;;;;;;;;9.00;6.75;;;;;14.52;72.76;99743.50;5061971;28;45535;-72
2021/10/31 08:53:50;;;;;;;;;7.00;6.00;;;;;14.49;72.98;99724.91;5062384;28;45314;-72
2021/10/31 08:56:15;;;;;;;;;5.00;5.00;;;;;14.52;72.98;99730.09;5061614;28;45254;-71
2021/10/31 08:58:41;;;;;;;;;5.50;5.50;;;;;14.58;73.24;99726.97;5062014;28;45317;-73
2021/10/31 09:01:07;;;;;;;;;6.00;6.00;;;;;14.61;73.08;99718.75;5061946;28;45232;-72
2021/10/31 09:03:33;;;;;;;;;6.75;5.00;;;;;14.64;72.57;99710.50;5048362;28;45442;-73
2021/10/31 09:05:58;;;;;;;;;5.00;5.00;;;;;14.64;72.86;99695.25;5061910;28;45494;-73
2021/10/31 09:08:24;;;;;;;;;6.00;6.00;;;;;14.70;72.82;99703.84;5061686;28;45410;-73
2021/10/31 09:10:53;;;;;;;;;6.00;6.00;;;;;14.67;72.79;99688.81;5056864;28;45324;-73
2021/10/31 09:13:22;;;;;;;;;9.00;6.75;;;;;14.74;72.78;99690.13;5058927;28;45238;-69
2021/10/31 09:15:49;;;;;;;;;8.75;7.50;;;;;14.74;72.57;99694.66;5061561;28;45250;-69
2021/10/31 09:18:14;;;;;;;;;4.00;4.00;;;;;14.74;72.78;99674.00;5060216;28;45318;-69
2021/10/31 09:20:40;;;;;;;;;9.00;7.00;;;;;14.75;72.86;99665.00;5061413;28;45473;-69
2021/10/31 09:23:06;;;;;;;;;6.50;6.50;;;;;14.77;73.03;99655.00;5057238;28;45362;-69
2021/10/31 09:25:34;;;;;;;;;8.50;7.75;;;;;14.78;72.92;99648.69;5045580;28;45452;-69
2021/10/31 09:28:01;;;;;;;;;8.00;8.00;;;;;14.79;72.97;99645.00;5056711;28;47212;-69
2021/10/31 09:30:28;;;;;;;;;9.25;6.00;;;;;14.84;73.04;99644.72;5055805;28;45457;-69
2021/10/31 09:32:54;;;;;;;;;4.75;4.75;;;;;14.82;72.95;99639.44;5061561;28;45493;-69
2021/10/31 09:35:23;;;;;;;;;4.75;4.50;;;;;14.92;73.09;99657.63;5061397;28;45417;-69
2021/10/31 09:37:53;;;;;;;;;6.25;5.00;;;;;14.91;73.56;99647.84;5060001;28;47252;-69
2021/10/31 09:40:20;;;;;;;;;5.25;4.00;;;;;14.95;73.26;99650.22;5061102;28;45325;-69
2021/10/31 09:42:48;;;;;;;;;4.00;3.00;;;;;15.04;73.17;99642.50;5061424;28;45322;-69
2021/10/31 09:45:13;;;;;;;;;4.50;4.00;;;;;15.05;73.03;99631.66;5061289;28;45363;-69
2021/10/31 09:47:41;;;;;;;;;3.00;3.00;;;;;15.04;72.77;99615.63;5060752;28;45282;-70
2021/10/31 09:50:09;;;;;;;;;3.00;3.00;;;;;15.12;72.91;99622.19;5061084;28;45579;-69
2021/10/31 09:52:34;;;;;;;;;0.00;0.00;;;;;15.16;72.55;99615.63;5060025;28;45327;-69
2021/10/31 09:55:00;;;;;;;;;4.00;4.00;;;;;15.21;72.49;99606.38;5076363;28;45622;-69
2021/10/31 09:57:25;;;;;;;;;5.25;4.00;;;;;15.23;72.34;99602.59;5060864;28;45287;-72
2021/10/31 09:59:56;;;;;;;;;3.50;2.00;;;;;15.28;72.47;99597.75;5061068;28;45388;-72
2021/10/31 10:05:24;;;;;;;;;2.50;2.50;;;;;15.35;72.13;99582.94;5060618;28;45483;-70
2021/10/31 10:08:14;;;;;;;;;3.00;3.00;;;;;15.37;72.31;99566.69;5065174;28;48102;-72
2021/10/31 10:10:51;;;;;;;;;3.00;2.00;;;;;15.42;72.25;99564.53;5060655;28;45402;-72
2021/10/31 10:13:22;;;;;;;;;2.50;2.50;;;;;15.46;71.79;99566.03;5061063;28;45358;-74
2021/10/31 10:15:49;;;;;;;;;1.75;1.75;;;;;15.46;71.89;99567.88;5060697;28;45264;-72
2021/10/31 10:18:31;;;;;;;;;2.00;2.00;;;;;15.50;72.30;99567.56;5060697;28;45314;-72
2021/10/31 10:21:15;;;;;;;;;2.50;1.50;;;;;15.57;72.12;99550.00;5060559;28;45334;-69
2021/10/31 10:23:48;;;;;;;;;3.00;2.00;;;;;15.61;72.27;99549.78;5060789;28;45310;-75
2021/10/31 10:26:24;;;;;;;;;4.00;4.00;;;;;15.65;72.12;99535.13;5050376;28;45449;-75
2021/10/31 10:28:49;;;;;;;;;3.00;2.00;;;;;15.67;72.17;99527.78;5060025;28;46162;-69
2021/10/31 10:31:23;;;;;;;;;5.75;3.50;;;;;15.74;72.43;99534.47;5060480;28;45237;-70
2021/10/31 10:33:52;;;;;;;;;3.00;3.00;;;;;15.81;72.40;99525.00;5060552;28;45295;-70
2021/10/31 10:36:19;;;;;;;;;4.00;4.00;;;;;15.87;72.80;99512.91;5059288;28;45347;-70
2021/10/31 10:38:59;;;;;;;;;3.00;3.00;;;;;15.96;72.67;99516.78;5060295;28;45881;-73
2021/10/31 10:41:39;;;;;;;;;3.00;3.00;;;;;16.01;72.92;99512.75;5060236;28;45472;-67
2021/10/31 10:44:18;;;;;;;;;5.00;3.00;;;;;16.09;72.76;99506.81;5060694;28;45513;-73
2021/10/31 10:46:45;;;;;;;;;2.00;2.00;;;;;16.14;73.03;99503.75;5060011;28;45534;-73
2021/10/31 10:49:16;;;;;;;;;2.00;2.00;;;;;16.18;72.87;99499.84;5060067;28;45477;-73
2021/10/31 10:51:42;;;;;;;;;2.25;2.25;;;;;16.28;72.92;99508.97;5060177;28;45381;-73
2021/10/31 10:54:09;;;;;;;;;2.25;1.25;;;;;16.29;72.90;99497.22;5060518;28;45443;-73
2021/10/31 10:56:35;;;;;;;;;1.25;1.25;;;;;16.39;72.90;99490.16;5059857;28;45695;-73
2021/10/31 10:59:00;;;;;;;;;2.00;2.00;;;;;16.47;72.99;99489.53;5060100;28;45255;-73
2021/10/31 11:01:26;;;;;;;;;1.25;1.00;;;;;16.51;72.76;99500.97;5056510;28;45336;-73
2021/10/31 11:03:51;;;;;;;;;1.25;1.25;;;;;16.52;72.67;99484.66;5048826;28;45412;-73
2021/10/31 11:06:17;;;;;;;;;1.00;1.00;;;;;16.62;72.70;99492.91;5059917;28;45603;-73
2021/10/31 11:08:42;;;;;;;;;2.00;1.25;;;;;16.68;72.76;99487.88;5060227;28;46075;-73
2021/10/31 11:11:15;;;;;;;;;1.50;1.50;;;;;16.76;72.58;99491.84;5046467;28;45331;-73
2021/10/31 11:13:55;;;;;;;;;2.00;2.00;;;;;16.82;72.68;99483.25;5060282;28;45251;-73
2021/10/31 11:16:21;;;;;;;;;2.00;2.00;;;;;16.88;72.56;99490.06;5059450;28;45322;-73
2021/10/31 11:18:47;;;;;;;;;2.00;2.00;;;;;16.93;72.40;99482.47;5060002;28;46216;-74
2021/10/31 11:21:12;;;;;;;;;2.00;2.00;;;;;16.98;72.42;99475.72;5059609;28;45319;-73
2021/10/31 11:23:38;;;;;;;;;2.00;2.00;;;;;17.01;72.28;99483.56;5060135;28;45313;-73
2021/10/31 11:26:07;;;;;;;;;2.25;2.25;;;;;17.08;72.42;99470.44;5059475;28;45390;-73
2021/10/31 11:28:32;;;;;;;;;2.00;1.50;;;;;17.14;72.16;99466.41;5059773;28;45283;-73
2021/10/31 11:30:57;;;;;;;;;2.00;1.50;;;;;17.16;71.86;99478.78;5059559;28;45488;-73
2021/10/31 11:33:24;;;;;;;;;1.50;1.50;;;;;17.19;72.21;99466.88;5059820;28;45433;-74